Terminal Aerodrome Forecast
Issued by NWS

Home | Current Version | Previous Version | Text Only | Print | Product List | Glossary On
Versions: 1 2 3 4 5 6 7 8 9 10 11 12 13 14 15 16 17 18 19 20 21 22 23 24 25 26 27 28 29 30
000
FTUS43 KDMX 291938 AAA
TAFMCW
TAF AMD
KMCW 291938Z 2920/3018 29019G24KT P6SM VCSH BKN060
     FM300100 30010KT P6SM SCT060 BKN100
     FM300400 28007KT P6SM SCT170
     FM301400 29010G16KT P6SM SCT130
     FM301600 29012G24KT P6SM SCT070=

USA.gov is the U.S. government's official web portal to all federal, state and local government web resources and services.